Godreau, Canada
Current Conditions -  °F | °C
As of 7:00 PM on Friday 19 Dec 2014 (Local Time) from CYXZ Reporting Station
Broken Clouds Broken Clouds  
Wind Chill:   Ceiling: 10000
Heat Index: 16°   Visibility: 15mi
Dew Point: 14°   Wind: 6mph
Humidity: 93%   Direction: 50°NE
Pressure: 30.27"   Gusts: NA
Location:  48.25°N, 84.53°W
Report Text: CYXZ 200000Z 05005KT 15SM SCT030 BKN100 M09/M10 A3027 RMK SC3AC3 LAST OBS/NEXT 201100UTC SLP277
Loading
Personal Weather Stations






























Interactive Weather Map New forecast layout! Learn more

10-Day Weather Forecast

Advertisements
Track Severe Weather on mobile